AirNav   Phillips 66 Aviation Fuel
 
 339 users online  

6II0 Turnpaugh Field Airport
Walton, Indiana, USA

GOING TO WALTON?


FAA INFORMATION EFFECTIVE 12 OCTOBER 2017

Location

FAA Identifier: 6II0
Lat/Long: 40-38-43.1300N / 086-17-33.9800W
40-38.718833N / 086-17.566333W
40.6453139 / -86.2927722
(estimated)
Elevation: 757 ft. / 231 m (estimated)
Variation: 02W (1990)
From city: 2 miles SW of WALTON, IN
Time zone: UTC -4 (UTC -5 during Standard Time)
Zip code: 46994

Airport Operations

Airport use: Private use. Permission required prior to landing
Activation date: 11/1992
Control tower: no
ARTCC: CHICAGO CENTER
FSS: TERRE HAUTE FLIGHT SERVICE STATION
Attendance: UNATNDD
Segmented circle: no

Airport Communications

WX AWOS-3P at GGP (5 nm NW): 118.5 (574-737-7310)
WX AWOS-3PT at OKK (13 nm SE): 113.5 (765-452-3014)

Nearby radio navigation aids

VOR radial/distance  VOR name  Freq  Var
GUSr272/6.4GRISSOM VORTAC108.4502W
OKKr308/12.8KOKOMO VORTAC113.5005W
MZZr291/29.4MARION VOR/DME108.6003W
BVTr080/35.8BOILER VORTAC115.1001E

 
NDB name  Hdg/Dist  Freq  Var  ID
FRANKFORT031/25.627802WFKR ..-. -.- .-.
HUNTINGTON255/39.741703WHHG .... .... --.

Airport Services

Runway Information

Runway 18/36

Dimensions: 2700 x 100 ft. / 823 x 30 m
Surface: turf
RUNWAY 18  RUNWAY 36
Traffic pattern: leftleft
Displaced threshold: 500 ft.150 ft.
Obstructions: 25 ft. plinenone

Airport Ownership and Management from official FAA records

Ownership: Privately-owned
Owner: DAVID TURNPAUGH
RR 1; BOX 42
WALTON, IN 46994
Phone 219-626-3295
Manager: DAVID TURNPAUGH
RR 1; BOX 42
WALTON, IN 46994
Phone 219-626-3295

Instrument Procedures

There are no published instrument procedures at 6II0.

Some nearby airports with instrument procedures:

KGGP - Logansport/Cass County Airport (5 nm NW)
KGUS - Grissom Air Reserve Base (6 nm E)
I76 - Peru Municipal Airport (11 nm NE)
KOKK - Kokomo Municipal Airport (13 nm SE)
KMCX - White County Airport (22 nm W)
 
Loc | Ops | Rwys | IFR | FBO | Links
Com | Nav | Svcs | Stats | Notes


 
Area around 6II0 (Turnpaugh Field Airport)
 
Road maps at: MapQuest Bing Google
 
Aerial photo
No photo
 
Sectional chart

 
Airport distance calculator
Flying to Turnpaugh Field Airport? Find the distance to fly.

From to 6II0

Sunrise and sunset
Times for 23-Oct-2017
 Local
(UTC-4)
 Zulu
(UTC)
Morning civil twilight07:3811:38
Sunrise08:0612:06
Sunset18:5322:53
Evening civil twilight19:2123:21

Current date and time
Zulu (UTC)  23-Oct-2017 09:10:12
Local (UTC-4)  23-Oct-2017 05:10:12
 
METAR
KGGP 
5nm NW 
230855Z AUTO 08003KT 10SM RA SCT039 BKN048 OVC110 15/13 A2988 RMK AO2 P0005
KGUS 
7nm E 
230856Z AUTO 12004KT 10SM -RA FEW029 FEW033 BKN047 BKN055 17/15 A2988 RMK AO2 DZB0756E03RAB03 SLP117 P0001 60001 T01660148 57017 $
KOKK 
13nm SE 
230856Z AUTO 14005KT 10SM -RA SCT070 OVC110 17/14 A2989 RMK AO2 RAB18 SLP118 P0000 60000 T01670139 58017
TAF
KGUS 
7nm E 
230728Z 2307/2409 18012KT 9999 OVC050 QNH2990INS BECMG 2308/2309 VRB06KT 8000 -SHRA BKN010 OVC030 540203 QNH2966INS BECMG 2319/2320 33012G18KT 9000 -SHRA OVC007 540203 QNH2964INS BECMG 2321/2322 30020G30KT 9000 -RA BKN007 OVC030 510002 540203 QNH2967INS BECMG 2323/2324 27012KT 9000 -RA SCT007 BKN030 OVC100 QNH2966INS TX19/2307Z TN11/2403Z
NOTAMs
Click for the latest NOTAMs
NOTAMs are issued by the DoD/FAA and will open in a separate window not controlled by AirNav.

 

 
 

Would you like to see your business listed on this page?

 If your business provides an interesting product or service to pilots, flight crews, aircraft, or users of the Turnpaugh Field Airport, you should consider listing it here.  To start the listing process, click on the button below
 
Add a business
 

Other Pages about Turnpaugh Field Airport

Update a link
 
Copyright © AirNav, LLC. All rights reserved. Privacy Policy  Contact